Terminal Aerodrome Forecast
Issued by NWS

Home | Current Version | Previous Version | Text Only | Print | Product List | Glossary On
Versions: 1 2 3 4 5 6 7 8 9 10 11 12 13
724
FTUS44 KEPZ 262320
TAFTCS
TAF
KTCS 262320Z 2700/2724 29010KT P6SM VCTS FEW110CB
     FM270600 29006KT P6SM BKN120
     FM271600 10007KT P6SM VCTS FEW050CB SCT250=

USA.gov is the U.S. government's official web portal to all federal, state and local government web resources and services.